sensor_id;sensor_type;location;lat;lon;timestamp;pressure;altitude;pressure_sealevel;temperature;humidity
41866;BME280;27539;43.222;27.558;2022-07-23T00:00:46;100504.84;;;20.62;100.00
41866;BME280;27539;43.222;27.558;2022-07-23T00:03:12;100501.06;;;20.53;100.00
41866;BME280;27539;43.222;27.558;2022-07-23T00:05:38;100496.91;;;20.23;100.00
41866;BME280;27539;43.222;27.558;2022-07-23T00:08:05;100503.59;;;20.13;100.00
41866;BME280;27539;43.222;27.558;2022-07-23T00:10:30;100513.66;;;20.19;100.00
41866;BME280;27539;43.222;27.558;2022-07-23T00:12:56;100518.13;;;20.20;100.00
41866;BME280;27539;43.222;27.558;2022-07-23T00:15:21;100510.59;;;20.02;100.00
41866;BME280;27539;43.222;27.558;2022-07-23T00:17:47;100486.94;;;19.84;100.00
41866;BME280;27539;43.222;27.558;2022-07-23T00:20:13;100516.16;;;20.07;100.00
41866;BME280;27539;43.222;27.558;2022-07-23T00:22:49;100513.72;;;20.00;100.00
41866;BME280;27539;43.222;27.558;2022-07-23T00:25:15;100480.44;;;19.83;100.00
41866;BME280;27539;43.222;27.558;2022-07-23T00:27:40;100508.81;;;20.06;100.00
41866;BME280;27539;43.222;27.558;2022-07-23T00:30:06;100509.03;;;20.10;100.00
41866;BME280;27539;43.222;27.558;2022-07-23T00:32:32;100512.69;;;20.10;100.00
41866;BME280;27539;43.222;27.558;2022-07-23T00:34:58;100479.41;;;19.93;100.00
41866;BME280;27539;43.222;27.558;2022-07-23T00:37:23;100495.13;;;19.99;100.00
41866;BME280;27539;43.222;27.558;2022-07-23T00:39:49;100512.88;;;20.00;100.00
41866;BME280;27539;43.222;27.558;2022-07-23T00:42:14;100510.38;;;19.98;100.00
41866;BME280;27539;43.222;27.558;2022-07-23T00:44:40;100510.69;;;19.97;100.00
41866;BME280;27539;43.222;27.558;2022-07-23T00:47:05;100503.56;;;19.85;100.00
41866;BME280;27539;43.222;27.558;2022-07-23T00:49:31;100494.97;;;19.77;100.00
41866;BME280;27539;43.222;27.558;2022-07-23T00:52:01;100518.00;;;19.84;100.00
41866;BME280;27539;43.222;27.558;2022-07-23T00:54:27;100513.56;;;19.78;100.00
41866;BME280;27539;43.222;27.558;2022-07-23T00:56:53;100518.41;;;19.77;100.00
41866;BME280;27539;43.222;27.558;2022-07-23T00:59:19;100514.94;;;19.80;100.00
41866;BME280;27539;43.222;27.558;2022-07-23T01:01:45;100513.56;;;19.78;100.00
41866;BME280;27539;43.222;27.558;2022-07-23T01:04:13;100509.53;;;19.84;100.00
41866;BME280;27539;43.222;27.558;2022-07-23T01:06:40;100503.75;;;19.75;100.00
41866;BME280;27539;43.222;27.558;2022-07-23T01:09:06;100499.47;;;19.78;100.00
41866;BME280;27539;43.222;27.558;2022-07-23T01:11:34;100501.59;;;20.00;100.00
41866;BME280;27539;43.222;27.558;2022-07-23T01:14:07;100506.84;;;20.06;100.00
41866;BME280;27539;43.222;27.558;2022-07-23T01:16:33;100495.63;;;19.88;100.00
41866;BME280;27539;43.222;27.558;2022-07-23T01:18:59;100500.53;;;19.96;100.00
41866;BME280;27539;43.222;27.558;2022-07-23T01:21:24;100490.16;;;19.91;100.00
41866;BME280;27539;43.222;27.558;2022-07-23T01:23:50;100493.84;;;19.92;100.00
41866;BME280;27539;43.222;27.558;2022-07-23T01:26:15;100477.50;;;19.75;100.00
41866;BME280;27539;43.222;27.558;2022-07-23T01:28:42;100494.97;;;19.77;100.00
41866;BME280;27539;43.222;27.558;2022-07-23T01:31:08;100490.94;;;19.97;100.00
41866;BME280;27539;43.222;27.558;2022-07-23T01:33:34;100496.16;;;20.17;100.00
41866;BME280;27539;43.222;27.558;2022-07-23T01:35:59;100472.22;;;20.15;100.00
41866;BME280;27539;43.222;27.558;2022-07-23T01:38:25;100464.66;;;19.96;100.00
41866;BME280;27539;43.222;27.558;2022-07-23T01:40:50;100473.66;;;19.84;100.00
41866;BME280;27539;43.222;27.558;2022-07-23T01:43:15;100489.47;;;19.99;100.00
41866;BME280;27539;43.222;27.558;2022-07-23T01:45:41;100483.78;;;19.85;100.00
41866;BME280;27539;43.222;27.558;2022-07-23T01:48:08;100484.41;;;19.96;100.00
41866;BME280;27539;43.222;27.558;2022-07-23T01:50:33;100489.56;;;19.94;100.00
41866;BME280;27539;43.222;27.558;2022-07-23T01:52:59;100488.59;;;19.85;100.00
41866;BME280;27539;43.222;27.558;2022-07-23T01:55:24;100489.34;;;19.91;100.00
41866;BME280;27539;43.222;27.558;2022-07-23T01:57:49;100486.31;;;19.87;100.00
41866;BME280;27539;43.222;27.558;2022-07-23T02:00:15;100454.25;;;19.64;100.00
41866;BME280;27539;43.222;27.558;2022-07-23T02:02:41;100457.28;;;19.54;100.00
41866;BME280;27539;43.222;27.558;2022-07-23T02:05:07;100489.44;;;19.85;100.00
41866;BME280;27539;43.222;27.558;2022-07-23T02:07:33;100488.44;;;19.62;100.00
41866;BME280;27539;43.222;27.558;2022-07-23T02:09:58;100488.81;;;19.56;100.00
41866;BME280;27539;43.222;27.558;2022-07-23T02:12:25;100465.25;;;19.33;100.00
41866;BME280;27539;43.222;27.558;2022-07-23T02:14:50;100482.13;;;19.52;100.00
41866;BME280;27539;43.222;27.558;2022-07-23T02:17:16;100475.44;;;19.48;100.00
41866;BME280;27539;43.222;27.558;2022-07-23T02:19:41;100494.91;;;19.63;100.00
41866;BME280;27539;43.222;27.558;2022-07-23T02:22:06;100487.69;;;19.57;100.00
41866;BME280;27539;43.222;27.558;2022-07-23T02:24:32;100487.78;;;19.52;100.00
41866;BME280;27539;43.222;27.558;2022-07-23T02:26:57;100462.44;;;19.33;100.00
41866;BME280;27539;43.222;27.558;2022-07-23T02:29:23;100497.91;;;19.53;100.00
41866;BME280;27539;43.222;27.558;2022-07-23T02:31:48;100497.16;;;19.47;100.00
41866;BME280;27539;43.222;27.558;2022-07-23T02:34:14;100497.19;;;19.61;100.00
41866;BME280;27539;43.222;27.558;2022-07-23T02:36:39;100502.19;;;19.50;100.00
41866;BME280;27539;43.222;27.558;2022-07-23T02:39:05;100501.81;;;19.57;100.00
41866;BME280;27539;43.222;27.558;2022-07-23T02:41:30;100506.06;;;19.54;100.00
41866;BME280;27539;43.222;27.558;2022-07-23T02:43:56;100512.81;;;19.39;100.00
41866;BME280;27539;43.222;27.558;2022-07-23T02:46:21;100493.09;;;19.20;100.00
41866;BME280;27539;43.222;27.558;2022-07-23T02:48:47;100505.56;;;19.33;100.00
41866;BME280;27539;43.222;27.558;2022-07-23T02:51:12;100499.97;;;19.14;100.00
41866;BME280;27539;43.222;27.558;2022-07-23T02:53:38;100514.44;;;19.27;100.00
41866;BME280;27539;43.222;27.558;2022-07-23T02:56:03;100518.47;;;19.20;100.00
41866;BME280;27539;43.222;27.558;2022-07-23T02:58:29;100501.09;;;19.13;100.00
41866;BME280;27539;43.222;27.558;2022-07-23T03:00:54;100515.66;;;19.20;100.00
41866;BME280;27539;43.222;27.558;2022-07-23T03:03:20;100496.44;;;19.23;100.00
41866;BME280;27539;43.222;27.558;2022-07-23T03:05:45;100513.34;;;19.41;100.00
41866;BME280;27539;43.222;27.558;2022-07-23T03:08:11;100517.22;;;19.46;100.00
41866;BME280;27539;43.222;27.558;2022-07-23T03:10:36;100525.00;;;19.54;100.00
41866;BME280;27539;43.222;27.558;2022-07-23T03:13:02;100497.69;;;19.16;100.00
41866;BME280;27539;43.222;27.558;2022-07-23T03:15:27;100535.56;;;19.29;100.00
41866;BME280;27539;43.222;27.558;2022-07-23T03:17:53;100531.13;;;19.23;100.00
41866;BME280;27539;43.222;27.558;2022-07-23T03:20:18;100515.72;;;19.15;100.00
41866;BME280;27539;43.222;27.558;2022-07-23T03:22:43;100539.59;;;19.23;100.00
41866;BME280;27539;43.222;27.558;2022-07-23T03:25:09;100542.84;;;19.30;100.00
41866;BME280;27539;43.222;27.558;2022-07-23T03:27:34;100543.03;;;19.20;100.00
41866;BME280;27539;43.222;27.558;2022-07-23T03:30:00;100525.81;;;19.21;100.00
41866;BME280;27539;43.222;27.558;2022-07-23T03:32:26;100539.03;;;19.21;100.00
41866;BME280;27539;43.222;27.558;2022-07-23T03:34:52;100548.34;;;19.40;100.00
41866;BME280;27539;43.222;27.558;2022-07-23T03:37:19;100537.75;;;19.32;100.00
41866;BME280;27539;43.222;27.558;2022-07-23T03:39:44;100544.75;;;19.35;100.00
41866;BME280;27539;43.222;27.558;2022-07-23T03:42:10;100548.88;;;19.42;100.00
41866;BME280;27539;43.222;27.558;2022-07-23T03:44:36;100548.25;;;19.46;100.00
41866;BME280;27539;43.222;27.558;2022-07-23T03:47:05;100545.88;;;19.53;100.00
41866;BME280;27539;43.222;27.558;2022-07-23T03:49:31;100549.84;;;19.52;100.00
41866;BME280;27539;43.222;27.558;2022-07-23T03:51:57;100542.00;;;19.49;100.00
41866;BME280;27539;43.222;27.558;2022-07-23T03:54:22;100546.72;;;19.53;100.00
41866;BME280;27539;43.222;27.558;2022-07-23T03:56:48;100507.72;;;19.41;100.00
41866;BME280;27539;43.222;27.558;2022-07-23T03:59:13;100546.63;;;19.58;100.00
41866;BME280;27539;43.222;27.558;2022-07-23T04:01:39;100545.41;;;19.64;100.00
41866;BME280;27539;43.222;27.558;2022-07-23T04:04:04;100543.50;;;19.79;100.00
41866;BME280;27539;43.222;27.558;2022-07-23T04:06:30;100539.06;;;19.73;100.00
41866;BME280;27539;43.222;27.558;2022-07-23T04:08:55;100540.25;;;19.85;100.00
41866;BME280;27539;43.222;27.558;2022-07-23T04:11:21;100546.69;;;20.05;100.00
41866;BME280;27539;43.222;27.558;2022-07-23T04:13:47;100548.56;;;20.10;100.00
41866;BME280;27539;43.222;27.558;2022-07-23T04:16:12;100523.16;;;20.10;100.00
41866;BME280;27539;43.222;27.558;2022-07-23T04:18:37;100552.03;;;20.48;100.00
41866;BME280;27539;43.222;27.558;2022-07-23T04:21:03;100552.75;;;20.54;100.00
41866;BME280;27539;43.222;27.558;2022-07-23T04:23:29;100535.13;;;20.62;100.00
41866;BME280;27539;43.222;27.558;2022-07-23T04:25:54;100513.66;;;20.61;100.00
41866;BME280;27539;43.222;27.558;2022-07-23T04:28:19;100541.75;;;20.93;100.00
41866;BME280;27539;43.222;27.558;2022-07-23T04:30:45;100543.78;;;21.15;100.00
41866;BME280;27539;43.222;27.558;2022-07-23T04:33:10;100546.66;;;21.38;100.00
41866;BME280;27539;43.222;27.558;2022-07-23T04:35:36;100545.06;;;21.68;100.00
41866;BME280;27539;43.222;27.558;2022-07-23T04:38:02;100543.72;;;21.88;100.00
41866;BME280;27539;43.222;27.558;2022-07-23T04:40:28;100518.38;;;21.92;100.00
41866;BME280;27539;43.222;27.558;2022-07-23T04:42:55;100547.13;;;22.30;100.00
41866;BME280;27539;43.222;27.558;2022-07-23T04:45:20;100501.41;;;22.23;100.00
41866;BME280;27539;43.222;27.558;2022-07-23T04:47:46;100550.72;;;22.62;100.00
41866;BME280;27539;43.222;27.558;2022-07-23T04:50:12;100550.28;;;22.86;100.00
41866;BME280;27539;43.222;27.558;2022-07-23T04:52:38;100543.19;;;22.97;100.00
41866;BME280;27539;43.222;27.558;2022-07-23T04:55:04;100546.22;;;23.18;100.00
41866;BME280;27539;43.222;27.558;2022-07-23T04:57:29;100541.22;;;23.33;100.00
41866;BME280;27539;43.222;27.558;2022-07-23T04:59:55;100552.06;;;23.48;100.00
41866;BME280;27539;43.222;27.558;2022-07-23T05:02:20;100539.34;;;23.54;100.00
41866;BME280;27539;43.222;27.558;2022-07-23T05:04:46;100547.69;;;23.77;100.00
41866;BME280;27539;43.222;27.558;2022-07-23T05:07:11;100543.16;;;23.84;100.00
41866;BME280;27539;43.222;27.558;2022-07-23T05:09:36;100546.78;;;24.02;100.00
41866;BME280;27539;43.222;27.558;2022-07-23T05:12:02;100539.72;;;24.17;100.00
41866;BME280;27539;43.222;27.558;2022-07-23T05:14:28;100551.72;;;24.31;100.00
41866;BME280;27539;43.222;27.558;2022-07-23T05:16:53;100554.84;;;24.47;100.00
41866;BME280;27539;43.222;27.558;2022-07-23T05:19:19;100550.78;;;24.66;97.58
41866;BME280;27539;43.222;27.558;2022-07-23T05:21:44;100551.63;;;24.87;99.24
41866;BME280;27539;43.222;27.558;2022-07-23T05:24:10;100545.50;;;25.06;95.47
41866;BME280;27539;43.222;27.558;2022-07-23T05:26:36;100551.00;;;25.32;95.35
41866;BME280;27539;43.222;27.558;2022-07-23T05:29:01;100543.28;;;25.54;93.20
41866;BME280;27539;43.222;27.558;2022-07-23T05:31:26;100538.44;;;25.54;87.64
41866;BME280;27539;43.222;27.558;2022-07-23T05:33:52;100532.34;;;25.77;89.74
41866;BME280;27539;43.222;27.558;2022-07-23T05:36:17;100544.06;;;25.96;90.33
41866;BME280;27539;43.222;27.558;2022-07-23T05:38:43;100539.25;;;26.21;88.67
41866;BME280;27539;43.222;27.558;2022-07-23T05:41:08;100538.31;;;26.29;88.17
41866;BME280;27539;43.222;27.558;2022-07-23T05:43:34;100536.06;;;26.47;86.86
41866;BME280;27539;43.222;27.558;2022-07-23T05:45:59;100534.44;;;26.59;82.84
41866;BME280;27539;43.222;27.558;2022-07-23T05:48:25;100511.69;;;26.50;83.36
41866;BME280;27539;43.222;27.558;2022-07-23T05:50:50;100515.06;;;26.64;84.66
41866;BME280;27539;43.222;27.558;2022-07-23T05:53:16;100510.41;;;26.72;83.59
41866;BME280;27539;43.222;27.558;2022-07-23T05:55:42;100530.84;;;26.99;83.23
41866;BME280;27539;43.222;27.558;2022-07-23T05:58:07;100536.25;;;27.16;81.62
41866;BME280;27539;43.222;27.558;2022-07-23T06:00:34;100543.25;;;27.43;80.65
41866;BME280;27539;43.222;27.558;2022-07-23T06:02:59;100538.22;;;27.52;81.01
41866;BME280;27539;43.222;27.558;2022-07-23T06:05:25;100529.47;;;27.61;80.40
41866;BME280;27539;43.222;27.558;2022-07-23T06:07:50;100541.88;;;27.81;81.04
41866;BME280;27539;43.222;27.558;2022-07-23T06:10:16;100515.47;;;27.84;79.62
41866;BME280;27539;43.222;27.558;2022-07-23T06:12:42;100535.78;;;28.11;77.37
41866;BME280;27539;43.222;27.558;2022-07-23T06:15:08;100534.81;;;28.35;76.53
41866;BME280;27539;43.222;27.558;2022-07-23T06:17:34;100536.31;;;28.60;75.22
41866;BME280;27539;43.222;27.558;2022-07-23T06:19:59;100527.25;;;28.74;78.46
41866;BME280;27539;43.222;27.558;2022-07-23T06:22:24;100529.34;;;28.77;69.08
41866;BME280;27539;43.222;27.558;2022-07-23T06:24:50;100522.47;;;28.98;68.71
41866;BME280;27539;43.222;27.558;2022-07-23T06:27:17;100540.44;;;29.30;71.26
41866;BME280;27539;43.222;27.558;2022-07-23T06:29:43;100530.25;;;29.52;68.53
41866;BME280;27539;43.222;27.558;2022-07-23T06:32:08;100502.13;;;29.58;61.60
41866;BME280;27539;43.222;27.558;2022-07-23T06:34:34;100522.72;;;29.83;59.83
41866;BME280;27539;43.222;27.558;2022-07-23T06:37:00;100516.84;;;29.76;56.83
41866;BME280;27539;43.222;27.558;2022-07-23T06:39:26;100526.88;;;30.08;54.38
41866;BME280;27539;43.222;27.558;2022-07-23T06:41:53;100497.88;;;30.13;53.54
41866;BME280;27539;43.222;27.558;2022-07-23T06:44:18;100532.31;;;30.60;55.32
41866;BME280;27539;43.222;27.558;2022-07-23T06:46:44;100526.88;;;30.77;53.47
41866;BME280;27539;43.222;27.558;2022-07-23T06:49:09;100516.53;;;30.96;52.20
41866;BME280;27539;43.222;27.558;2022-07-23T06:51:35;100513.06;;;31.13;50.86
41866;BME280;27539;43.222;27.558;2022-07-23T06:54:01;100534.06;;;31.17;47.88
41866;BME280;27539;43.222;27.558;2022-07-23T06:56:27;100492.28;;;31.24;46.23
41866;BME280;27539;43.222;27.558;2022-07-23T06:58:52;100517.25;;;31.46;44.83
41866;BME280;27539;43.222;27.558;2022-07-23T07:01:18;100524.78;;;31.58;46.32
41866;BME280;27539;43.222;27.558;2022-07-23T07:03:43;100514.66;;;31.71;44.68
41866;BME280;27539;43.222;27.558;2022-07-23T07:06:09;100519.28;;;31.79;45.73
41866;BME280;27539;43.222;27.558;2022-07-23T07:08:34;100517.31;;;31.87;43.99
41866;BME280;27539;43.222;27.558;2022-07-23T07:11:00;100523.75;;;32.11;42.22
41866;BME280;27539;43.222;27.558;2022-07-23T07:13:25;100517.22;;;32.17;45.08
41866;BME280;27539;43.222;27.558;2022-07-23T07:15:51;100507.59;;;31.99;44.78
41866;BME280;27539;43.222;27.558;2022-07-23T07:18:16;100514.13;;;32.37;45.17
41866;BME280;27539;43.222;27.558;2022-07-23T07:20:42;100521.38;;;32.64;44.40
41866;BME280;27539;43.222;27.558;2022-07-23T07:23:07;100521.56;;;32.86;42.26
41866;BME280;27539;43.222;27.558;2022-07-23T07:25:33;100526.19;;;33.01;46.07
41866;BME280;27539;43.222;27.558;2022-07-23T07:27:58;100513.84;;;33.01;42.06
41866;BME280;27539;43.222;27.558;2022-07-23T07:30:24;100532.53;;;33.25;41.40
41866;BME280;27539;43.222;27.558;2022-07-23T07:32:49;100523.97;;;33.43;42.96
41866;BME280;27539;43.222;27.558;2022-07-23T07:35:15;100518.94;;;33.25;43.10
41866;BME280;27539;43.222;27.558;2022-07-23T07:37:40;100500.09;;;33.49;45.20
41866;BME280;27539;43.222;27.558;2022-07-23T07:40:06;100512.97;;;33.66;39.73
41866;BME280;27539;43.222;27.558;2022-07-23T07:42:32;100511.81;;;33.92;40.58
41866;BME280;27539;43.222;27.558;2022-07-23T07:44:58;100511.81;;;33.96;40.72
41866;BME280;27539;43.222;27.558;2022-07-23T07:47:23;100498.63;;;33.98;42.52
41866;BME280;27539;43.222;27.558;2022-07-23T07:49:49;100508.16;;;34.28;40.91
41866;BME280;27539;43.222;27.558;2022-07-23T07:52:14;100504.88;;;34.40;36.21
41866;BME280;27539;43.222;27.558;2022-07-23T07:54:40;100505.28;;;34.28;37.13
41866;BME280;27539;43.222;27.558;2022-07-23T07:57:05;100472.28;;;34.11;38.08
41866;BME280;27539;43.222;27.558;2022-07-23T07:59:31;100502.78;;;34.15;38.45
41866;BME280;27539;43.222;27.558;2022-07-23T08:01:56;100499.53;;;34.49;38.31
41866;BME280;27539;43.222;27.558;2022-07-23T08:04:22;100501.16;;;34.57;38.26
41866;BME280;27539;43.222;27.558;2022-07-23T08:06:47;100486.31;;;34.41;37.99
41866;BME280;27539;43.222;27.558;2022-07-23T08:09:13;100492.06;;;34.12;37.57
41866;BME280;27539;43.222;27.558;2022-07-23T08:11:38;100492.09;;;34.34;38.69
41866;BME280;27539;43.222;27.558;2022-07-23T08:14:03;100502.81;;;34.48;36.90
41866;BME280;27539;43.222;27.558;2022-07-23T08:16:29;100501.59;;;34.34;35.77
41866;BME280;27539;43.222;27.558;2022-07-23T08:18:54;100499.94;;;34.66;36.70
41866;BME280;27539;43.222;27.558;2022-07-23T08:21:20;100496.19;;;34.90;36.98
41866;BME280;27539;43.222;27.558;2022-07-23T08:23:45;100486.28;;;35.09;37.21
41866;BME280;27539;43.222;27.558;2022-07-23T08:26:11;100473.84;;;35.26;35.09
41866;BME280;27539;43.222;27.558;2022-07-23T08:28:37;100496.91;;;35.41;37.12
41866;BME280;27539;43.222;27.558;2022-07-23T08:31:02;100498.59;;;35.35;37.76
41866;BME280;27539;43.222;27.558;2022-07-23T08:33:30;100491.06;;;35.48;37.30
41866;BME280;27539;43.222;27.558;2022-07-23T08:35:56;100477.63;;;34.88;34.91
41866;BME280;27539;43.222;27.558;2022-07-23T08:38:22;100480.47;;;34.98;36.30
41866;BME280;27539;43.222;27.558;2022-07-23T08:40:50;100500.25;;;35.25;33.70
41866;BME280;27539;43.222;27.558;2022-07-23T08:43:24;100503.59;;;35.20;35.08
41866;BME280;27539;43.222;27.558;2022-07-23T08:45:51;100469.72;;;35.24;34.00
41866;BME280;27539;43.222;27.558;2022-07-23T08:48:19;100471.03;;;34.55;33.76
41866;BME280;27539;43.222;27.558;2022-07-23T08:50:49;100490.00;;;34.88;33.95
41866;BME280;27539;43.222;27.558;2022-07-23T08:53:16;100494.59;;;34.68;34.05
41866;BME280;27539;43.222;27.558;2022-07-23T08:55:47;100493.75;;;34.81;34.80
41866;BME280;27539;43.222;27.558;2022-07-23T08:58:13;100492.44;;;35.11;34.82
41866;BME280;27539;43.222;27.558;2022-07-23T09:00:39;100491.16;;;35.30;33.25
41866;BME280;27539;43.222;27.558;2022-07-23T09:03:04;100474.59;;;35.38;32.96
41866;BME280;27539;43.222;27.558;2022-07-23T09:05:30;100486.44;;;35.72;32.43
41866;BME280;27539;43.222;27.558;2022-07-23T09:08:15;100484.19;;;36.05;32.86
41866;BME280;27539;43.222;27.558;2022-07-23T09:10:51;100469.69;;;36.08;32.01
41866;BME280;27539;43.222;27.558;2022-07-23T09:13:32;100471.06;;;36.42;32.50
41866;BME280;27539;43.222;27.558;2022-07-23T09:16:01;100492.72;;;36.26;33.07
41866;BME280;27539;43.222;27.558;2022-07-23T09:21:24;100493.63;;;36.20;31.76
41866;BME280;27539;43.222;27.558;2022-07-23T09:24:01;100488.25;;;36.18;31.44
41866;BME280;27539;43.222;27.558;2022-07-23T09:26:34;100495.75;;;36.08;32.27
41866;BME280;27539;43.222;27.558;2022-07-23T09:29:17;100477.25;;;36.44;33.42
41866;BME280;27539;43.222;27.558;2022-07-23T09:31:48;100477.91;;;36.66;31.79
41866;BME280;27539;43.222;27.558;2022-07-23T09:34:24;100479.56;;;36.67;31.56
41866;BME280;27539;43.222;27.558;2022-07-23T09:36:58;100478.94;;;36.45;32.34
41866;BME280;27539;43.222;27.558;2022-07-23T09:39:33;100474.06;;;36.34;31.21
41866;BME280;27539;43.222;27.558;2022-07-23T09:44:45;100457.97;;;36.26;31.32
41866;BME280;27539;43.222;27.558;2022-07-23T09:47:11;100480.81;;;36.66;32.12
41866;BME280;27539;43.222;27.558;2022-07-23T09:52:49;100444.69;;;36.78;32.27
41866;BME280;27539;43.222;27.558;2022-07-23T09:55:17;100456.88;;;37.00;31.60
41866;BME280;27539;43.222;27.558;2022-07-23T09:57:46;100450.28;;;36.95;30.00
41866;BME280;27539;43.222;27.558;2022-07-23T10:00:16;100456.41;;;37.39;29.66
41866;BME280;27539;43.222;27.558;2022-07-23T10:02:41;100441.16;;;37.31;29.89
41866;BME280;27539;43.222;27.558;2022-07-23T10:05:09;100446.28;;;37.51;30.08
41866;BME280;27539;43.222;27.558;2022-07-23T10:07:37;100453.75;;;37.52;28.93
41866;BME280;27539;43.222;27.558;2022-07-23T10:10:04;100408.97;;;37.22;30.88
41866;BME280;27539;43.222;27.558;2022-07-23T10:12:30;100435.75;;;36.61;30.51
41866;BME280;27539;43.222;27.558;2022-07-23T10:14:57;100445.75;;;36.94;30.73
41866;BME280;27539;43.222;27.558;2022-07-23T10:17:22;100452.91;;;36.83;30.55
41866;BME280;27539;43.222;27.558;2022-07-23T10:19:48;100417.84;;;36.70;30.25
41866;BME280;27539;43.222;27.558;2022-07-23T10:25:09;100412.28;;;36.86;29.98
41866;BME280;27539;43.222;27.558;2022-07-23T10:30:32;100433.34;;;37.28;28.89
41866;BME280;27539;43.222;27.558;2022-07-23T10:33:20;100431.56;;;36.66;31.24
41866;BME280;27539;43.222;27.558;2022-07-23T10:38:42;100403.78;;;36.23;31.03
41866;BME280;27539;43.222;27.558;2022-07-23T10:41:08;100417.88;;;36.21;30.02
41866;BME280;27539;43.222;27.558;2022-07-23T10:43:34;100425.50;;;36.49;30.56
41866;BME280;27539;43.222;27.558;2022-07-23T10:46:22;100426.34;;;36.46;29.08
41866;BME280;27539;43.222;27.558;2022-07-23T10:49:27;100416.28;;;36.62;30.38
41866;BME280;27539;43.222;27.558;2022-07-23T10:54:44;100411.66;;;37.36;30.21
41866;BME280;27539;43.222;27.558;2022-07-23T10:57:11;100401.22;;;37.12;29.45
41866;BME280;27539;43.222;27.558;2022-07-23T11:02:31;100392.34;;;37.57;30.62
41866;BME280;27539;43.222;27.558;2022-07-23T11:05:04;100382.47;;;37.51;31.97
41866;BME280;27539;43.222;27.558;2022-07-23T11:07:30;100385.69;;;37.60;31.29
41866;BME280;27539;43.222;27.558;2022-07-23T11:09:56;100405.94;;;37.91;30.96
41866;BME280;27539;43.222;27.558;2022-07-23T11:20:22;100403.25;;;36.81;32.38
41866;BME280;27539;43.222;27.558;2022-07-23T11:27:47;100405.47;;;36.66;34.25
41866;BME280;27539;43.222;27.558;2022-07-23T11:32:51;100381.97;;;36.57;34.64
41866;BME280;27539;43.222;27.558;2022-07-23T11:35:27;100422.91;;;36.96;34.40
41866;BME280;27539;43.222;27.558;2022-07-23T11:38:06;100407.22;;;36.94;33.29
41866;BME280;27539;43.222;27.558;2022-07-23T11:40:33;100403.09;;;36.57;33.54
41866;BME280;27539;43.222;27.558;2022-07-23T11:43:04;100432.47;;;36.55;34.39
41866;BME280;27539;43.222;27.558;2022-07-23T11:45:41;100418.56;;;36.36;34.42
41866;BME280;27539;43.222;27.558;2022-07-23T11:48:16;100430.63;;;36.31;34.79
41866;BME280;27539;43.222;27.558;2022-07-23T11:50:42;100429.56;;;36.55;35.79
41866;BME280;27539;43.222;27.558;2022-07-23T11:53:07;100418.56;;;36.40;34.68
41866;BME280;27539;43.222;27.558;2022-07-23T11:55:33;100425.09;;;36.47;35.89
41866;BME280;27539;43.222;27.558;2022-07-23T11:57:59;100395.63;;;36.15;35.59
41866;BME280;27539;43.222;27.558;2022-07-23T12:00:27;100415.06;;;36.55;36.21
41866;BME280;27539;43.222;27.558;2022-07-23T12:02:56;100413.50;;;36.47;36.04
41866;BME280;27539;43.222;27.558;2022-07-23T12:05:37;100425.94;;;36.44;35.60
41866;BME280;27539;43.222;27.558;2022-07-23T12:08:05;100424.69;;;36.45;35.93
41866;BME280;27539;43.222;27.558;2022-07-23T12:10:43;100420.47;;;36.05;36.85
41866;BME280;27539;43.222;27.558;2022-07-23T12:13:11;100425.78;;;36.17;36.18
41866;BME280;27539;43.222;27.558;2022-07-23T12:15:40;100427.50;;;36.07;36.71
41866;BME280;27539;43.222;27.558;2022-07-23T12:18:10;100403.00;;;35.63;36.64
41866;BME280;27539;43.222;27.558;2022-07-23T12:20:41;100422.34;;;35.74;38.04
41866;BME280;27539;43.222;27.558;2022-07-23T12:23:09;100406.06;;;35.94;36.65
41866;BME280;27539;43.222;27.558;2022-07-23T12:25:39;100402.03;;;35.84;36.56
41866;BME280;27539;43.222;27.558;2022-07-23T12:28:13;100419.16;;;36.17;38.03
41866;BME280;27539;43.222;27.558;2022-07-23T12:30:43;100425.63;;;36.31;37.10
41866;BME280;27539;43.222;27.558;2022-07-23T12:33:12;100413.22;;;35.82;35.88
41866;BME280;27539;43.222;27.558;2022-07-23T12:35:44;100428.56;;;35.72;37.89
41866;BME280;27539;43.222;27.558;2022-07-23T12:38:12;100400.09;;;35.63;37.22
41866;BME280;27539;43.222;27.558;2022-07-23T12:43:09;100429.03;;;35.67;37.34
41866;BME280;27539;43.222;27.558;2022-07-23T12:53:36;100416.19;;;35.68;38.06
41866;BME280;27539;43.222;27.558;2022-07-23T12:56:10;100412.00;;;35.76;37.41
41866;BME280;27539;43.222;27.558;2022-07-23T12:58:48;100426.56;;;35.58;36.90
41866;BME280;27539;43.222;27.558;2022-07-23T13:06:22;100411.06;;;35.20;37.61
41866;BME280;27539;43.222;27.558;2022-07-23T13:08:47;100415.13;;;35.33;37.53
41866;BME280;27539;43.222;27.558;2022-07-23T13:11:13;100410.91;;;35.48;38.31
41866;BME280;27539;43.222;27.558;2022-07-23T13:13:39;100411.31;;;35.51;37.29
41866;BME280;27539;43.222;27.558;2022-07-23T13:16:04;100400.84;;;34.83;37.82
41866;BME280;27539;43.222;27.558;2022-07-23T13:18:30;100401.97;;;35.21;37.64
41866;BME280;27539;43.222;27.558;2022-07-23T13:20:56;100365.63;;;35.20;37.80
41866;BME280;27539;43.222;27.558;2022-07-23T13:23:22;100398.88;;;35.64;36.97
41866;BME280;27539;43.222;27.558;2022-07-23T13:25:47;100378.66;;;35.50;36.39
41866;BME280;27539;43.222;27.558;2022-07-23T13:28:14;100409.13;;;35.73;36.51